createdAt,value
2018-04-29T00:00:57.767Z,10.40
2018-04-29T00:03:26.575Z,10.50
2018-04-29T00:05:55.399Z,10.50
2018-04-29T00:08:23.443Z,10.50
2018-04-29T00:10:51.496Z,10.50
2018-04-29T00:13:19.543Z,10.60
2018-04-29T00:15:47.590Z,10.60
2018-04-29T00:18:15.635Z,10.60
2018-04-29T00:20:43.693Z,10.60
2018-04-29T00:23:11.743Z,10.50
2018-04-29T00:25:39.799Z,10.50
2018-04-29T00:28:07.839Z,10.40
2018-04-29T00:30:36.663Z,10.40
2018-04-29T00:33:04.700Z,10.30
2018-04-29T00:35:32.835Z,10.30
2018-04-29T00:38:00.823Z,10.30
2018-04-29T00:40:28.875Z,10.30
2018-04-29T00:42:57.677Z,10.20
2018-04-29T00:45:26.501Z,10.20
2018-04-29T00:47:54.538Z,10.20
2018-04-29T00:50:22.590Z,10.10
2018-04-29T00:52:50.631Z,10.10
2018-04-29T00:55:19.447Z,10.10
2018-04-29T00:57:47.490Z,10.10
2018-04-29T01:00:15.543Z,10.10
2018-04-29T01:02:43.582Z,10.10
2018-04-29T01:05:12.404Z,10.10
2018-04-29T01:07:40.441Z,10.00
2018-04-29T01:10:08.486Z,10.00
2018-04-29T01:12:36.538Z,10.00
2018-04-29T01:15:05.348Z,10.00
2018-04-29T01:17:34.150Z,9.90
2018-04-29T01:20:02.186Z,9.90
2018-04-29T01:22:30.227Z,9.80
2018-04-29T01:24:58.269Z,9.80
2018-04-29T01:27:26.310Z,9.70
2018-04-29T01:29:54.345Z,9.70
2018-04-29T01:32:22.462Z,9.60
2018-04-29T01:34:50.494Z,9.60
2018-04-29T01:37:18.538Z,9.60
2018-04-29T01:39:46.622Z,9.50
2018-04-29T01:42:14.653Z,9.50
2018-04-29T01:44:42.695Z,9.40
2018-04-29T01:47:10.748Z,9.40
2018-04-29T01:49:39.551Z,9.30
2018-04-29T01:52:08.358Z,9.30
2018-04-29T01:54:37.154Z,9.20
2018-04-29T01:57:05.961Z,9.20
2018-04-29T01:59:34.762Z,9.20
2018-04-29T02:02:02.805Z,9.10
2018-04-29T02:04:30.835Z,9.10
2018-04-29T02:06:59.643Z,9.00
2018-04-29T02:09:27.671Z,9.00
2018-04-29T02:11:55.714Z,9.00
2018-04-29T02:14:23.748Z,9.00
2018-04-29T02:16:51.796Z,8.90
2018-04-29T02:19:19.870Z,8.90
2018-04-29T02:21:47.906Z,9.00
2018-04-29T02:24:15.934Z,9.10
2018-04-29T02:26:44.028Z,9.20
2018-04-29T02:29:12.006Z,9.30
2018-04-29T02:31:40.050Z,9.30
2018-04-29T02:34:08.084Z,9.30
2018-04-29T02:36:36.163Z,9.30
2018-04-29T02:39:04.194Z,9.30
2018-04-29T02:41:32.227Z,9.30
2018-04-29T02:44:00.263Z,9.30
2018-04-29T02:46:28.289Z,9.30
2018-04-29T02:48:56.331Z,9.30
2018-04-29T02:51:24.374Z,9.30
2018-04-29T02:53:52.419Z,9.40
2018-04-29T02:56:21.229Z,9.60
2018-04-29T02:58:50.030Z,9.70
2018-04-29T03:01:18.845Z,9.70
2018-04-29T03:03:47.655Z,9.70
2018-04-29T03:06:15.695Z,9.70
2018-04-29T03:08:43.734Z,9.70
2018-04-29T03:11:11.771Z,9.60
2018-04-29T03:13:39.894Z,9.60
2018-04-29T03:16:07.931Z,9.50
2018-04-29T03:18:35.975Z,9.40
2018-04-29T03:21:04.015Z,9.40
2018-04-29T03:23:32.822Z,9.40
2018-04-29T03:26:01.651Z,9.30
2018-04-29T03:28:29.694Z,9.30
2018-04-29T03:30:58.495Z,9.30
2018-04-29T03:33:26.536Z,9.30
2018-04-29T03:35:54.569Z,9.30
2018-04-29T03:38:22.606Z,9.30
2018-04-29T03:40:50.694Z,9.20
2018-04-29T03:43:18.716Z,9.20
2018-04-29T03:45:46.746Z,9.10
2018-04-29T03:48:14.786Z,9.10
2018-04-29T03:50:42.814Z,9.10
2018-04-29T03:53:10.854Z,9.00
2018-04-29T03:55:38.891Z,9.00
2018-04-29T03:58:25.052Z,9.00
2018-04-29T04:01:10.958Z,9.00
2018-04-29T04:04:09.522Z,8.90
2018-04-29T04:06:37.546Z,9.00
2018-04-29T04:09:06.355Z,8.90
2018-04-29T04:11:35.155Z,9.00
2018-04-29T04:14:03.962Z,9.00
2018-04-29T04:16:32.763Z,9.00
2018-04-29T04:19:01.567Z,9.00
2018-04-29T04:21:30.360Z,9.10
2018-04-29T04:23:59.165Z,9.10
2018-04-29T04:26:27.967Z,9.20
2018-04-29T04:28:56.774Z,9.20
2018-04-29T04:31:25.571Z,9.20
2018-04-29T04:33:54.374Z,9.30
2018-04-29T04:36:23.175Z,9.30
2018-04-29T04:38:51.976Z,9.30
2018-04-29T04:41:20.775Z,9.30
2018-04-29T04:43:48.816Z,9.20
2018-04-29T04:46:16.846Z,9.30
2018-04-29T04:48:45.643Z,9.20
2018-04-29T04:51:14.439Z,9.30
2018-04-29T04:53:42.470Z,9.30
2018-04-29T04:56:10.509Z,9.30
2018-04-29T04:58:38.544Z,9.20
2018-04-29T05:01:06.579Z,9.20
2018-04-29T05:03:34.750Z,9.20
2018-04-29T05:06:02.801Z,9.20
2018-04-29T05:08:30.828Z,9.20
2018-04-29T05:10:58.862Z,9.20
2018-04-29T05:13:26.934Z,9.20
2018-04-29T05:15:55.719Z,9.30
2018-04-29T05:18:24.526Z,9.30
2018-04-29T05:20:53.331Z,9.40
2018-04-29T05:23:21.366Z,9.40
2018-04-29T05:25:49.410Z,9.50
2018-04-29T05:28:17.446Z,9.70
2018-04-29T05:30:45.490Z,9.80
2018-04-29T05:33:13.559Z,10.00
2018-04-29T05:35:41.605Z,10.20
2018-04-29T05:38:09.634Z,10.40
2018-04-29T05:40:37.686Z,10.40
2018-04-29T05:43:06.494Z,10.40
2018-04-29T05:45:35.311Z,10.30
2018-04-29T05:48:03.363Z,10.30
2018-04-29T05:50:32.200Z,10.30
2018-04-29T05:53:00.251Z,10.30
2018-04-29T05:55:28.303Z,10.40
2018-04-29T05:57:56.350Z,10.50
2018-04-29T06:00:24.444Z,10.50
2018-04-29T06:02:52.450Z,10.60
2018-04-29T06:05:20.502Z,10.70
2018-04-29T06:07:48.542Z,10.80
2018-04-29T06:10:17.363Z,10.80
2018-04-29T06:12:45.474Z,10.80
2018-04-29T06:15:13.533Z,10.90
2018-04-29T06:17:41.579Z,10.90
2018-04-29T06:20:09.631Z,10.90
2018-04-29T06:22:37.665Z,11.00
2018-04-29T06:25:05.719Z,11.00
2018-04-29T06:27:33.763Z,11.00
2018-04-29T06:30:02.588Z,11.10
2018-04-29T06:32:30.639Z,11.10
2018-04-29T06:34:59.442Z,11.30
2018-04-29T06:37:28.358Z,11.40
2018-04-29T06:39:57.174Z,11.50
2018-04-29T06:42:25.223Z,11.40
2018-04-29T06:44:54.030Z,11.70
2018-04-29T06:47:22.074Z,11.70
2018-04-29T06:49:50.115Z,11.90
2018-04-29T06:52:18.939Z,12.20
2018-04-29T06:54:46.978Z,12.10
2018-04-29T06:57:15.027Z,12.30
2018-04-29T06:59:43.063Z,12.50
2018-04-29T07:02:11.879Z,12.80
2018-04-29T07:04:39.915Z,12.80
2018-04-29T07:07:07.964Z,12.90
2018-04-29T07:09:36.011Z,13.10
2018-04-29T07:12:04.127Z,13.40
2018-04-29T07:14:32.170Z,13.70
2018-04-29T07:17:00.982Z,14.10
2018-04-29T07:19:29.019Z,14.10
2018-04-29T07:21:57.064Z,14.00
2018-04-29T07:24:25.103Z,13.90
2018-04-29T07:26:53.152Z,13.80
2018-04-29T07:29:21.191Z,13.90
2018-04-29T07:31:50.006Z,14.30
2018-04-29T07:34:18.045Z,14.20
2018-04-29T07:36:46.090Z,14.40
2018-04-29T07:39:14.893Z,14.50
2018-04-29T07:41:42.954Z,14.50
2018-04-29T07:44:10.994Z,14.50
2018-04-29T07:46:39.042Z,14.40
2018-04-29T07:49:07.850Z,14.30
2018-04-29T07:51:36.671Z,14.30
2018-04-29T07:54:04.707Z,14.30
2018-04-29T07:56:32.758Z,14.40
2018-04-29T07:59:00.828Z,14.70
2018-04-29T08:01:28.903Z,15.00
2018-04-29T08:03:56.978Z,15.30
2018-04-29T08:06:25.030Z,15.50
2018-04-29T08:08:53.376Z,15.70
2018-04-29T08:11:21.419Z,15.90
2018-04-29T08:13:50.239Z,16.30
2018-04-29T08:16:18.327Z,16.20
2018-04-29T08:18:46.379Z,16.50
2018-04-29T08:21:14.424Z,16.70
2018-04-29T08:23:42.543Z,16.90
2018-04-29T08:26:11.342Z,17.00
2018-04-29T08:28:39.485Z,17.00
2018-04-29T08:31:07.509Z,17.10
2018-04-29T08:33:35.563Z,17.10
2018-04-29T08:36:03.612Z,17.00
2018-04-29T08:38:32.424Z,16.90
2018-04-29T08:41:00.470Z,16.90
2018-04-29T08:43:28.842Z,16.80
2018-04-29T08:45:56.887Z,16.80
2018-04-29T08:48:24.940Z,16.80
2018-04-29T08:50:52.973Z,16.90
2018-04-29T08:53:21.019Z,17.00
2018-04-29T08:55:49.824Z,17.00
2018-04-29T08:58:18.667Z,17.10
2018-04-29T09:00:46.711Z,17.00
2018-04-29T09:03:15.526Z,17.50
2018-04-29T09:05:43.686Z,17.50
2018-04-29T09:08:11.769Z,17.60
2018-04-29T09:10:39.902Z,17.70
2018-04-29T09:13:07.954Z,17.70
2018-04-29T09:15:36.881Z,17.60
2018-04-29T09:18:05.915Z,17.60
2018-04-29T09:20:35.047Z,17.60
2018-04-29T09:23:04.322Z,17.60
2018-04-29T09:25:32.490Z,17.60
2018-04-29T09:28:00.674Z,17.70
2018-04-29T09:30:28.846Z,17.60
2018-04-29T09:32:57.867Z,17.70
2018-04-29T09:35:26.690Z,17.90
2018-04-29T09:37:55.083Z,17.90
2018-04-29T09:40:23.370Z,18.20
2018-04-29T09:42:51.562Z,18.20
2018-04-29T09:45:19.598Z,18.30
2018-04-29T09:47:48.040Z,18.40
2018-04-29T09:50:16.118Z,18.50
2018-04-29T09:52:44.173Z,18.60
2018-04-29T09:55:12.998Z,19.00
2018-04-29T09:57:41.857Z,19.00
2018-04-29T10:00:09.907Z,19.00
2018-04-29T10:02:43.610Z,19.10
2018-04-29T10:05:11.847Z,19.20
2018-04-29T10:07:40.658Z,19.50
2018-04-29T10:10:08.713Z,19.40
2018-04-29T10:12:36.753Z,19.50
2018-04-29T10:15:04.808Z,19.70
2018-04-29T10:17:33.854Z,19.80
2018-04-29T10:20:01.907Z,20.00
2018-04-29T10:22:30.001Z,20.00
2018-04-29T10:24:58.833Z,20.20
2018-04-29T10:27:26.979Z,20.20
2018-04-29T10:29:56.631Z,20.60
2018-04-29T10:32:24.761Z,20.60
2018-04-29T10:34:52.723Z,20.80
2018-04-29T10:37:20.757Z,21.00
2018-04-29T10:39:49.732Z,21.40
2018-04-29T10:42:17.872Z,21.30
2018-04-29T10:44:47.260Z,21.60
2018-04-29T10:47:16.792Z,21.80
2018-04-29T10:49:45.610Z,21.90
2018-04-29T10:52:13.652Z,21.90
2018-04-29T10:54:41.708Z,22.10
2018-04-29T10:57:09.746Z,22.40
2018-04-29T10:59:38.564Z,22.50
2018-04-29T11:02:06.603Z,22.50
2018-04-29T11:04:34.650Z,22.50
2018-04-29T11:07:02.787Z,22.50
2018-04-29T11:09:30.840Z,22.60
2018-04-29T11:11:58.883Z,22.70
2018-04-29T11:14:26.938Z,23.00
2018-04-29T11:16:54.983Z,23.10
2018-04-29T11:19:23.031Z,23.00
2018-04-29T11:21:51.830Z,23.00
2018-04-29T11:24:20.798Z,23.10
2018-04-29T11:26:48.841Z,23.00
2018-04-29T11:29:16.882Z,23.20
2018-04-29T11:31:45.689Z,23.50
2018-04-29T11:34:13.746Z,23.50
2018-04-29T11:36:41.778Z,23.60
2018-04-29T11:39:10.593Z,23.70
2018-04-29T11:41:38.642Z,23.70
2018-04-29T11:44:06.699Z,23.90
2018-04-29T11:46:34.749Z,24.00
2018-04-29T11:49:02.811Z,24.10
2018-04-29T11:51:31.674Z,24.20
2018-04-29T11:53:59.721Z,24.20
2018-04-29T11:56:27.771Z,24.20
2018-04-29T11:58:55.808Z,24.30
2018-04-29T12:01:23.865Z,24.30
2018-04-29T12:03:51.907Z,24.50
2018-04-29T12:06:20.726Z,24.70
2018-04-29T12:08:48.938Z,24.70
2018-04-29T12:11:16.994Z,24.70
2018-04-29T12:13:45.806Z,24.80
2018-04-29T12:16:14.621Z,24.60
2018-04-29T12:18:43.424Z,24.70
2018-04-29T12:21:12.231Z,25.00
2018-04-29T12:23:40.276Z,24.90
2018-04-29T12:26:09.096Z,25.10
2018-04-29T12:28:37.898Z,25.10
2018-04-29T12:31:06.715Z,25.10
2018-04-29T12:33:35.547Z,25.30
2018-04-29T12:36:03.577Z,25.30
2018-04-29T12:38:31.619Z,25.30
2018-04-29T12:40:59.683Z,25.50
2018-04-29T12:43:27.725Z,25.60
2018-04-29T12:45:55.775Z,25.70
2018-04-29T12:48:23.816Z,25.60
2018-04-29T12:50:52.634Z,25.50
2018-04-29T12:53:20.675Z,25.50
2018-04-29T12:55:48.903Z,25.50
2018-04-29T12:58:16.942Z,25.40
2018-04-29T13:00:44.995Z,25.60
2018-04-29T13:03:13.030Z,25.60
2018-04-29T13:05:41.913Z,25.70
2018-04-29T13:08:10.655Z,25.60
2018-04-29T13:10:38.698Z,25.50
2018-04-29T13:13:06.743Z,25.70
2018-04-29T13:15:34.933Z,25.80
2018-04-29T13:18:02.970Z,25.80
2018-04-29T13:20:31.018Z,25.80
2018-04-29T13:22:59.065Z,25.70
2018-04-29T13:25:27.107Z,25.70
2018-04-29T13:27:55.154Z,25.60
2018-04-29T13:30:23.222Z,25.70
2018-04-29T13:32:51.270Z,25.90
2018-04-29T13:35:19.309Z,25.90
2018-04-29T13:37:47.362Z,25.90
2018-04-29T13:40:16.184Z,26.00
2018-04-29T13:42:44.230Z,26.00
2018-04-29T13:45:13.072Z,26.10
2018-04-29T13:47:41.891Z,26.40
2018-04-29T13:50:09.926Z,26.30
2018-04-29T13:52:38.755Z,26.20
2018-04-29T13:55:06.806Z,26.20
2018-04-29T13:57:34.883Z,26.00
2018-04-29T14:00:02.944Z,25.90
2018-04-29T14:02:30.982Z,25.90
2018-04-29T14:04:59.785Z,26.10
2018-04-29T14:07:28.604Z,26.20
2018-04-29T14:09:56.642Z,26.20
2018-04-29T14:12:24.690Z,26.30
2018-04-29T14:14:52.735Z,26.30
2018-04-29T14:17:21.542Z,26.50
2018-04-29T14:19:50.548Z,26.90
2018-04-29T14:22:18.581Z,26.90
2018-04-29T14:24:46.583Z,27.00
2018-04-29T14:27:14.634Z,27.00
2018-04-29T14:29:42.682Z,27.00
2018-04-29T14:32:11.486Z,26.80
2018-04-29T14:34:39.590Z,26.80
2018-04-29T14:37:07.636Z,26.60
2018-04-29T14:39:35.889Z,26.50
2018-04-29T14:42:03.927Z,26.40
2018-04-29T14:44:32.738Z,26.40
2018-04-29T14:47:00.786Z,26.30
2018-04-29T14:49:28.908Z,26.20
2018-04-29T14:51:56.876Z,26.00
2018-04-29T14:54:25.684Z,25.70
2018-04-29T14:56:54.496Z,25.50
2018-04-29T14:59:22.532Z,25.50
2018-04-29T15:01:50.583Z,25.40
2018-04-29T15:04:18.628Z,25.30
2018-04-29T15:06:47.443Z,25.30
2018-04-29T15:09:16.313Z,25.40
2018-04-29T15:11:44.303Z,25.40
2018-04-29T15:14:13.110Z,25.50
2018-04-29T15:16:41.243Z,25.50
2018-04-29T15:19:09.269Z,25.60
2018-04-29T15:21:37.934Z,25.60
2018-04-29T15:24:05.995Z,25.70
2018-04-29T15:26:34.039Z,26.00
2018-04-29T15:29:02.079Z,25.90
2018-04-29T15:31:30.134Z,25.90
2018-04-29T15:33:58.958Z,26.10
2018-04-29T15:36:26.994Z,26.00
2018-04-29T15:38:55.047Z,26.00
2018-04-29T15:41:23.094Z,25.90
2018-04-29T15:43:51.905Z,25.60
2018-04-29T15:46:19.951Z,25.60
2018-04-29T15:48:48.003Z,25.60
2018-04-29T15:51:16.037Z,25.40
2018-04-29T15:53:44.846Z,25.50
2018-04-29T15:56:13.654Z,25.50
2018-04-29T15:58:41.718Z,25.40
2018-04-29T16:01:10.527Z,25.20
2018-04-29T16:03:39.566Z,25.10
2018-04-29T16:06:07.548Z,25.10
2018-04-29T16:08:35.590Z,25.10
2018-04-29T16:11:04.398Z,24.90
2018-04-29T16:13:33.226Z,24.90
2018-04-29T16:16:01.275Z,24.90
2018-04-29T16:18:30.091Z,25.00
2018-04-29T16:20:58.896Z,25.00
2018-04-29T16:23:27.712Z,25.00
2018-04-29T16:25:55.747Z,25.00
2018-04-29T16:28:23.794Z,25.10
2018-04-29T16:30:51.845Z,25.00
2018-04-29T16:33:19.885Z,24.80
2018-04-29T16:35:47.942Z,24.70
2018-04-29T16:38:16.066Z,24.50
2018-04-29T16:40:44.026Z,24.50
2018-04-29T16:43:12.071Z,24.40
2018-04-29T16:45:41.010Z,24.30
2018-04-29T16:48:09.063Z,24.10
2018-04-29T16:50:37.907Z,23.90
2018-04-29T16:53:05.953Z,23.90
2018-04-29T16:55:34.865Z,24.00
2018-04-29T16:58:02.806Z,24.00
2018-04-29T17:00:30.856Z,23.90
2018-04-29T17:02:58.903Z,23.90
2018-04-29T17:05:27.706Z,23.80
2018-04-29T17:07:56.514Z,23.80
2018-04-29T17:10:25.334Z,23.60
2018-04-29T17:12:53.372Z,23.60
2018-04-29T17:15:21.418Z,23.60
2018-04-29T17:17:49.454Z,23.60
2018-04-29T17:20:18.294Z,23.60
2018-04-29T17:22:46.373Z,23.60
2018-04-29T17:25:14.406Z,23.70
2018-04-29T17:27:42.454Z,23.70
2018-04-29T17:30:10.486Z,23.60
2018-04-29T17:32:39.307Z,23.50
2018-04-29T17:35:08.122Z,23.40
2018-04-29T17:37:36.178Z,23.40
2018-04-29T17:40:04.226Z,23.30
2018-04-29T17:42:32.263Z,23.20
2018-04-29T17:45:01.083Z,23.20
2018-04-29T17:47:29.246Z,23.20
2018-04-29T17:49:58.066Z,22.90
2018-04-29T17:52:26.103Z,22.90
2018-04-29T17:54:54.150Z,22.80
2018-04-29T17:57:22.189Z,22.70
2018-04-29T17:59:50.367Z,22.50
2018-04-29T18:02:18.406Z,22.40
2018-04-29T18:04:46.463Z,22.30
2018-04-29T18:07:15.335Z,21.90
2018-04-29T18:09:43.318Z,21.90
2018-04-29T18:12:11.365Z,21.70
2018-04-29T18:14:39.410Z,21.60
2018-04-29T18:17:08.218Z,21.30
2018-04-29T18:19:37.027Z,21.40
2018-04-29T18:22:05.876Z,21.10
2018-04-29T18:24:33.973Z,21.10
2018-04-29T18:27:02.007Z,21.00
2018-04-29T18:29:30.051Z,21.00
2018-04-29T18:31:58.095Z,20.90
2018-04-29T18:34:26.141Z,20.70
2018-04-29T18:36:54.950Z,20.40
2018-04-29T18:39:23.747Z,20.30
2018-04-29T18:41:52.562Z,20.40
2018-04-29T18:44:20.596Z,20.40
2018-04-29T18:46:48.641Z,20.30
2018-04-29T18:49:16.682Z,20.20
2018-04-29T18:51:45.634Z,20.00
2018-04-29T18:54:13.640Z,19.90
2018-04-29T18:56:41.678Z,19.70
2018-04-29T18:59:10.493Z,19.40
2018-04-29T19:01:38.538Z,19.40
2018-04-29T19:04:06.583Z,19.30
2018-04-29T19:06:34.628Z,19.10
2018-04-29T19:09:03.435Z,18.90
2018-04-29T19:11:32.246Z,18.80
2018-04-29T19:14:01.130Z,18.80
2018-04-29T19:16:29.099Z,18.70
2018-04-29T19:18:57.136Z,18.70
2018-04-29T19:21:25.190Z,18.70
2018-04-29T19:23:54.100Z,18.50
2018-04-29T19:26:22.813Z,18.60
2018-04-29T19:28:50.855Z,18.50
2018-04-29T19:31:18.919Z,18.50
2018-04-29T19:33:46.943Z,18.50
2018-04-29T19:36:15.763Z,18.60
2018-04-29T19:38:43.798Z,18.60
2018-04-29T19:41:11.847Z,18.70
2018-04-29T19:43:39.890Z,18.70
2018-04-29T19:46:08.107Z,18.80
2018-04-29T19:48:36.157Z,18.70
2018-04-29T19:51:04.315Z,18.80
2018-04-29T19:53:32.346Z,18.70
2018-04-29T19:56:01.159Z,18.80
2018-04-29T19:58:29.203Z,18.80
2018-04-29T20:00:57.256Z,18.80
2018-04-29T20:03:26.146Z,18.70
2018-04-29T20:05:54.111Z,18.70
2018-04-29T20:08:22.159Z,18.70
2018-04-29T20:10:50.203Z,18.70
2018-04-29T20:13:18.255Z,18.70
2018-04-29T20:15:47.066Z,18.60
2018-04-29T20:18:16.700Z,18.60
2018-04-29T20:20:44.733Z,18.60
2018-04-29T20:23:12.783Z,18.60
2018-04-29T20:25:40.840Z,18.50
2018-04-29T20:28:09.630Z,18.30
2018-04-29T20:30:38.437Z,18.20
2018-04-29T20:33:07.266Z,18.20
2018-04-29T20:35:35.304Z,18.20
2018-04-29T20:38:04.855Z,18.30
2018-04-29T20:40:32.895Z,18.30
2018-04-29T20:43:00.948Z,18.30
2018-04-29T20:45:29.014Z,18.60
2018-04-29T20:47:57.058Z,18.60
2018-04-29T20:50:25.103Z,18.70
2018-04-29T20:52:53.147Z,18.70
2018-04-29T20:55:22.003Z,18.80
2018-04-29T20:57:50.056Z,18.80
2018-04-29T21:00:18.093Z,18.80
2018-04-29T21:02:46.224Z,18.90
2018-04-29T21:05:14.331Z,19.00
2018-04-29T21:07:42.358Z,19.00
2018-04-29T21:10:11.165Z,19.40
2018-04-29T21:12:39.994Z,19.40
2018-04-29T21:15:08.027Z,19.40
2018-04-29T21:17:36.078Z,19.60
2018-04-29T21:20:09.976Z,19.60
2018-04-29T21:22:38.775Z,20.00
2018-04-29T21:25:07.581Z,20.40
2018-04-29T21:27:35.661Z,20.40
2018-04-29T21:30:03.682Z,20.40
2018-04-29T21:32:31.731Z,20.40
2018-04-29T21:35:00.534Z,20.10
2018-04-29T21:37:29.353Z,20.10
2018-04-29T21:39:57.398Z,20.10
2018-04-29T21:42:25.453Z,20.00
2018-04-29T21:44:53.495Z,20.10
2018-04-29T21:47:21.534Z,20.10
2018-04-29T21:49:49.678Z,20.10
2018-04-29T21:52:18.148Z,20.30
2018-04-29T21:54:46.959Z,19.90
2018-04-29T21:57:15.004Z,19.90
2018-04-29T21:59:43.069Z,20.30
2018-04-29T22:02:11.103Z,20.20
2018-04-29T22:04:39.919Z,20.40
2018-04-29T22:07:07.958Z,20.30
2018-04-29T22:09:36.007Z,20.20
2018-04-29T22:12:04.052Z,20.30
2018-04-29T22:14:32.863Z,20.30
2018-04-29T22:17:01.691Z,20.40
2018-04-29T22:19:29.746Z,20.40
2018-04-29T22:21:58.550Z,20.20
2018-04-29T22:24:26.603Z,20.20
2018-04-29T22:26:54.646Z,20.30
2018-04-29T22:29:22.703Z,20.40
2018-04-29T22:31:51.505Z,20.30
2018-04-29T22:34:19.552Z,20.20
2018-04-29T22:36:47.594Z,20.20
2018-04-29T22:39:15.646Z,20.20
2018-04-29T22:41:44.774Z,20.00
2018-04-29T22:44:12.820Z,20.00
2018-04-29T22:46:40.863Z,19.90
2018-04-29T22:49:08.911Z,19.90
2018-04-29T22:51:37.717Z,19.90
2018-04-29T22:54:06.530Z,19.90
2018-04-29T22:56:34.572Z,19.90
2018-04-29T22:59:02.619Z,20.00
2018-04-29T23:01:30.654Z,20.00
2018-04-29T23:03:58.804Z,19.80
2018-04-29T23:06:26.809Z,19.80
2018-04-29T23:08:54.858Z,19.60
2018-04-29T23:11:22.901Z,19.70
2018-04-29T23:13:50.952Z,19.90
2018-04-29T23:16:18.998Z,20.40
2018-04-29T23:18:47.030Z,20.70
2018-04-29T23:21:15.087Z,20.80
2018-04-29T23:23:43.135Z,20.70
2018-04-29T23:26:11.945Z,20.20
2018-04-29T23:28:39.991Z,20.20
2018-04-29T23:31:08.050Z,19.80
2018-04-29T23:33:36.090Z,19.50
2018-04-29T23:36:04.898Z,18.70
2018-04-29T23:38:32.941Z,18.70
2018-04-29T23:41:00.986Z,18.50
2018-04-29T23:43:29.037Z,18.30
2018-04-29T23:45:57.847Z,17.90
2018-04-29T23:48:26.656Z,17.80
2018-04-29T23:50:54.698Z,17.80
2018-04-29T23:53:22.835Z,17.60
2018-04-29T23:55:50.887Z,17.60
2018-04-29T23:58:18.922Z,17.40
